Terminal Aerodrome Forecast
Issued by NWS

Home | Current Version | Previous Version | Text Only | Print | Product List | Glossary On
Versions: 1 2 3 4 5 6 7 8 9 10 11 12 13 14 15 16 17 18 19 20 21 22 23
059
FTUS43 KICT 210305 AAC
TAFHUT
TAF AMD
KHUT 210305Z 2103/2124 17003KT 1/4SM FG VV002
      TEMPO 2103/2106 3SM BR SCT005 SCT025
     FM210600 23004KT 1SM BR SKC
     FM211100 00000KT 1/2SM FG VV002
      TEMPO 2111/2115 2SM BR SCT003 BKN100
     FM211500 17003KT P6SM OVC080
     FM211800 15009KT P6SM OVC080=

USA.gov is the U.S. government's official web portal to all federal, state and local government web resources and services.